OAL277 LFMN-LIEO
Flight info
| Callsign | OAL277 |
|---|---|
| Flight time | 0h 54m |
| Altitude | 29000 |
| Route | VAREK DCT LOKDU DCT PELOS DCT IPROM DCT MALAV DCT ARSIK/N0376F190 P167 EKPOD |
| Aircraft | A320/M-SDE3FGHIRWY/LB1 |
Departure
| Time | 2026-05-05 20:37 |
|---|---|
| Airport | Nice-Côte d'Azur Airport (LFMN) |
Arrival
| Time | 2026-05-05 21:31 |
|---|---|
| Airport | Olbia Costa Smeralda Airport (LIEO) |
| Time | Latitude | Longitude | Altitude | Speed | Heading |
|---|---|---|---|---|---|
| 2026-05-05 19:57 | 43.66394 | 7.21020 | 22 ft | 0 kts | 3° |
| 2026-05-05 20:23 | 43.66373 | 7.21018 | 22 ft | 4 kts | 7° |
| 2026-05-05 20:23 | 43.66347 | 7.21012 | 23 ft | 4 kts | 19° |
| 2026-05-05 20:23 | 43.66324 | 7.20995 | 24 ft | 4 kts | 59° |
| 2026-05-05 20:23 | 43.66320 | 7.20980 | 22 ft | 0 kts | 98° |
| 2026-05-05 20:29 | 43.66320 | 7.20981 | 22 ft | 1 kts | 97° |
| 2026-05-05 20:29 | 43.66284 | 7.21001 | 22 ft | 10 kts | 171° |
| 2026-05-05 20:29 | 43.66197 | 7.21019 | 22 ft | 13 kts | 172° |
| 2026-05-05 20:29 | 43.66116 | 7.21034 | 23 ft | 11 kts | 172° |
| 2026-05-05 20:30 | 43.66067 | 7.21044 | 22 ft | 12 kts | 172° |
| 2026-05-05 20:30 | 43.65969 | 7.21079 | 24 ft | 16 kts | 151° |
| 2026-05-05 20:30 | 43.65893 | 7.21063 | 22 ft | 11 kts | 220° |
| 2026-05-05 20:30 | 43.65825 | 7.20970 | 22 ft | 17 kts | 226° |
| 2026-05-05 20:31 | 43.65736 | 7.20879 | 22 ft | 14 kts | 186° |
| 2026-05-05 20:31 | 43.65688 | 7.20890 | 23 ft | 0 kts | 168° |
| 2026-05-05 20:31 | 43.65687 | 7.20890 | 23 ft | 1 kts | 168° |
| 2026-05-05 20:31 | 43.65627 | 7.20907 | 22 ft | 14 kts | 168° |
| 2026-05-05 20:32 | 43.65533 | 7.20928 | 22 ft | 13 kts | 172° |
| 2026-05-05 20:32 | 43.65444 | 7.20946 | 22 ft | 13 kts | 172° |
| 2026-05-05 20:32 | 43.65364 | 7.20957 | 22 ft | 10 kts | 191° |
| 2026-05-05 20:32 | 43.65286 | 7.20871 | 22 ft | 18 kts | 224° |
| 2026-05-05 20:33 | 43.65194 | 7.20746 | 23 ft | 18 kts | 224° |
| 2026-05-05 20:33 | 43.65112 | 7.20633 | 22 ft | 16 kts | 224° |
| 2026-05-05 20:33 | 43.65038 | 7.20532 | 22 ft | 15 kts | 225° |
| 2026-05-05 20:33 | 43.64966 | 7.20432 | 22 ft | 14 kts | 225° |
| 2026-05-05 20:34 | 43.64890 | 7.20329 | 22 ft | 15 kts | 223° |
| 2026-05-05 20:34 | 43.64819 | 7.20268 | 22 ft | 6 kts | 180° |
| 2026-05-05 20:34 | 43.64812 | 7.20270 | 22 ft | 0 kts | 168° |
| 2026-05-05 20:35 | 43.64803 | 7.20274 | 22 ft | 3 kts | 160° |
| 2026-05-05 20:35 | 43.64778 | 7.20303 | 22 ft | 6 kts | 130° |
| 2026-05-05 20:35 | 43.64758 | 7.20369 | 23 ft | 7 kts | 81° |
| 2026-05-05 20:36 | 43.64802 | 7.20429 | 22 ft | 11 kts | 42° |
| 2026-05-05 20:36 | 43.64882 | 7.20537 | 22 ft | 27 kts | 44° |
| 2026-05-05 20:36 | 43.65193 | 7.20964 | 23 ft | 96 kts | 45° |
| 2026-05-05 20:36 | 43.65797 | 7.21795 | 23 ft | 148 kts | 45° |
| 2026-05-05 20:37 | 43.66612 | 7.22897 | 308 ft | 168 kts | 45° |
| 2026-05-05 20:37 | 43.67332 | 7.24113 | 1056 ft | 163 kts | 71° |
| 2026-05-05 20:37 | 43.67266 | 7.25634 | 1738 ft | 165 kts | 120° |
| 2026-05-05 20:37 | 43.66454 | 7.26734 | 2408 ft | 164 kts | 145° |
| 2026-05-05 20:38 | 43.65518 | 7.27601 | 3093 ft | 161 kts | 146° |
| 2026-05-05 20:38 | 43.64576 | 7.28454 | 3582 ft | 169 kts | 148° |
| 2026-05-05 20:38 | 43.63528 | 7.29384 | 3915 ft | 186 kts | 148° |
| 2026-05-05 20:38 | 43.62407 | 7.30392 | 4310 ft | 201 kts | 144° |
| 2026-05-05 20:39 | 43.61322 | 7.31762 | 4639 ft | 218 kts | 134° |
| 2026-05-05 20:39 | 43.60264 | 7.33367 | 5099 ft | 231 kts | 133° |
| 2026-05-05 20:39 | 43.59046 | 7.34801 | 5860 ft | 228 kts | 154° |
| 2026-05-05 20:39 | 43.57603 | 7.35663 | 6668 ft | 228 kts | 161° |
| 2026-05-05 20:40 | 43.56110 | 7.36381 | 7452 ft | 228 kts | 163° |
| 2026-05-05 20:40 | 43.54598 | 7.37072 | 8201 ft | 230 kts | 163° |
| 2026-05-05 20:40 | 43.53055 | 7.37786 | 8966 ft | 232 kts | 163° |
| 2026-05-05 20:40 | 43.51518 | 7.38515 | 9682 ft | 238 kts | 163° |
| 2026-05-05 20:41 | 43.49876 | 7.39305 | 9981 ft | 262 kts | 163° |
| 2026-05-05 20:41 | 43.48086 | 7.40179 | 10244 ft | 285 kts | 163° |
| 2026-05-05 20:41 | 43.46138 | 7.41144 | 10473 ft | 309 kts | 163° |
| 2026-05-05 20:41 | 43.44051 | 7.42190 | 10760 ft | 328 kts | 162° |
| 2026-05-05 20:42 | 43.41883 | 7.43291 | 11379 ft | 334 kts | 162° |
| 2026-05-05 20:42 | 43.39691 | 7.44412 | 12122 ft | 337 kts | 163° |
| 2026-05-05 20:42 | 43.37485 | 7.45540 | 12867 ft | 340 kts | 163° |
| 2026-05-05 20:42 | 43.35257 | 7.46672 | 13615 ft | 342 kts | 164° |
| 2026-05-05 20:43 | 43.33018 | 7.47803 | 14293 ft | 344 kts | 164° |
| 2026-05-05 20:43 | 43.30766 | 7.48936 | 14953 ft | 346 kts | 164° |
| 2026-05-05 20:43 | 43.28498 | 7.50076 | 15597 ft | 349 kts | 164° |
| 2026-05-05 20:43 | 43.26211 | 7.51219 | 16237 ft | 351 kts | 164° |
| 2026-05-05 20:44 | 43.23906 | 7.52371 | 16866 ft | 353 kts | 164° |
| 2026-05-05 20:44 | 43.21590 | 7.53530 | 17484 ft | 356 kts | 164° |
| 2026-05-05 20:44 | 43.19254 | 7.54701 | 18095 ft | 359 kts | 164° |
| 2026-05-05 20:44 | 43.16899 | 7.55879 | 18627 ft | 362 kts | 164° |
| 2026-05-05 20:45 | 43.12133 | 7.58268 | 19624 ft | 368 kts | 165° |
| 2026-05-05 20:45 | 43.09722 | 7.59474 | 20102 ft | 370 kts | 165° |
| 2026-05-05 20:45 | 43.07290 | 7.60690 | 20594 ft | 374 kts | 165° |
| 2026-05-05 20:46 | 43.04844 | 7.61915 | 21074 ft | 377 kts | 165° |
| 2026-05-05 20:46 | 43.02371 | 7.63147 | 21533 ft | 380 kts | 165° |
| 2026-05-05 20:46 | 42.99880 | 7.64380 | 21994 ft | 383 kts | 165° |
| 2026-05-05 20:46 | 42.97365 | 7.65621 | 22454 ft | 386 kts | 165° |
| 2026-05-05 20:47 | 42.94831 | 7.66873 | 22890 ft | 389 kts | 166° |
| 2026-05-05 20:47 | 42.92275 | 7.68140 | 23309 ft | 392 kts | 166° |
| 2026-05-05 20:47 | 42.89699 | 7.69420 | 23702 ft | 395 kts | 166° |
| 2026-05-05 20:47 | 42.87069 | 7.70727 | 24062 ft | 398 kts | 166° |
| 2026-05-05 20:48 | 42.84460 | 7.72019 | 24438 ft | 400 kts | 166° |
| 2026-05-05 20:48 | 42.81835 | 7.73312 | 24803 ft | 403 kts | 166° |
| 2026-05-05 20:48 | 42.79193 | 7.74612 | 25157 ft | 405 kts | 166° |
| 2026-05-05 20:48 | 42.76545 | 7.75920 | 25512 ft | 407 kts | 167° |
| 2026-05-05 20:49 | 42.73868 | 7.77242 | 25865 ft | 409 kts | 167° |
| 2026-05-05 20:49 | 42.71182 | 7.78564 | 26212 ft | 411 kts | 167° |
| 2026-05-05 20:49 | 42.68482 | 7.79888 | 26543 ft | 414 kts | 167° |
| 2026-05-05 20:49 | 42.65771 | 7.81220 | 26892 ft | 416 kts | 167° |
| 2026-05-05 20:50 | 42.63038 | 7.82565 | 27217 ft | 418 kts | 167° |
| 2026-05-05 20:50 | 42.60297 | 7.83911 | 27546 ft | 421 kts | 167° |
| 2026-05-05 20:50 | 42.57538 | 7.85261 | 27878 ft | 423 kts | 168° |
| 2026-05-05 20:50 | 42.54760 | 7.86615 | 28201 ft | 425 kts | 168° |
| 2026-05-05 20:51 | 42.51978 | 7.87976 | 28513 ft | 427 kts | 168° |
| 2026-05-05 20:51 | 42.49176 | 7.89347 | 28816 ft | 429 kts | 168° |
| 2026-05-05 20:51 | 42.46368 | 7.90720 | 28930 ft | 427 kts | 168° |
| 2026-05-05 20:51 | 42.43607 | 7.92078 | 28943 ft | 418 kts | 168° |
| 2026-05-05 20:52 | 42.38170 | 7.94740 | 28947 ft | 414 kts | 168° |
| 2026-05-05 20:52 | 42.32742 | 7.97353 | 28947 ft | 413 kts | 170° |
| 2026-05-05 20:53 | 42.27210 | 7.98701 | 28948 ft | 401 kts | 181° |
| 2026-05-05 20:53 | 42.21660 | 7.99565 | 28950 ft | 402 kts | 180° |
| 2026-05-05 20:54 | 42.16098 | 8.00443 | 28941 ft | 402 kts | 180° |
| 2026-05-05 20:54 | 42.10547 | 8.01321 | 28932 ft | 402 kts | 180° |
| 2026-05-05 20:55 | 42.04989 | 8.02195 | 28933 ft | 402 kts | 180° |
| 2026-05-05 20:55 | 41.99392 | 8.03074 | 28930 ft | 402 kts | 180° |
| 2026-05-05 20:56 | 41.93827 | 8.03944 | 28929 ft | 403 kts | 180° |
| 2026-05-05 20:56 | 41.88256 | 8.04828 | 28928 ft | 403 kts | 180° |
| 2026-05-05 20:57 | 41.82682 | 8.05716 | 28928 ft | 404 kts | 180° |
| 2026-05-05 20:57 | 41.77100 | 8.06611 | 28931 ft | 404 kts | 180° |
| 2026-05-05 20:58 | 41.71513 | 8.07498 | 28933 ft | 404 kts | 180° |
| 2026-05-05 20:58 | 41.65927 | 8.08368 | 28933 ft | 404 kts | 180° |
| 2026-05-05 20:59 | 41.60329 | 8.09243 | 28937 ft | 405 kts | 180° |
| 2026-05-05 20:59 | 41.54735 | 8.10119 | 28938 ft | 405 kts | 180° |
| 2026-05-05 21:00 | 41.49143 | 8.11003 | 28935 ft | 405 kts | 180° |
| 2026-05-05 21:00 | 41.43551 | 8.11879 | 28934 ft | 405 kts | 180° |
| 2026-05-05 21:01 | 41.37960 | 8.12752 | 28936 ft | 405 kts | 180° |
| 2026-05-05 21:01 | 41.32372 | 8.13630 | 28941 ft | 404 kts | 180° |
| 2026-05-05 21:02 | 41.26782 | 8.14497 | 28942 ft | 404 kts | 180° |
| 2026-05-05 21:02 | 41.21197 | 8.15357 | 28941 ft | 404 kts | 180° |
| 2026-05-05 21:03 | 41.16538 | 8.16508 | 28943 ft | 414 kts | 168° |
| 2026-05-05 21:03 | 41.11343 | 8.20095 | 28937 ft | 426 kts | 156° |
| 2026-05-05 21:04 | 41.06100 | 8.23489 | 28936 ft | 416 kts | 166° |
| 2026-05-05 21:04 | 41.00706 | 8.26266 | 28941 ft | 416 kts | 166° |
| 2026-05-05 21:05 | 40.95314 | 8.29049 | 28944 ft | 416 kts | 166° |
| 2026-05-05 21:05 | 40.89915 | 8.31822 | 28953 ft | 416 kts | 166° |
| 2026-05-05 21:06 | 40.84525 | 8.34581 | 28942 ft | 415 kts | 166° |
| 2026-05-05 21:06 | 40.79182 | 8.37549 | 28948 ft | 418 kts | 163° |
| 2026-05-05 21:07 | 40.73878 | 8.40697 | 28950 ft | 418 kts | 163° |
| 2026-05-05 21:07 | 40.68622 | 8.44012 | 28946 ft | 425 kts | 155° |
| 2026-05-05 21:08 | 40.66239 | 8.46392 | 28944 ft | 436 kts | 144° |
| 2026-05-05 21:08 | 40.64203 | 8.49432 | 28965 ft | 453 kts | 132° |
| 2026-05-05 21:08 | 40.62621 | 8.53070 | 28510 ft | 463 kts | 118° |
| 2026-05-05 21:08 | 40.61511 | 8.57109 | 27968 ft | 461 kts | 115° |
| 2026-05-05 21:09 | 40.60455 | 8.61069 | 27443 ft | 456 kts | 116° |
| 2026-05-05 21:09 | 40.59397 | 8.64986 | 26930 ft | 452 kts | 116° |
| 2026-05-05 21:09 | 40.58337 | 8.68856 | 26426 ft | 448 kts | 116° |
| 2026-05-05 21:09 | 40.57277 | 8.72691 | 25934 ft | 444 kts | 116° |
| 2026-05-05 21:10 | 40.56215 | 8.76493 | 25448 ft | 441 kts | 116° |
| 2026-05-05 21:10 | 40.55174 | 8.80211 | 24980 ft | 438 kts | 116° |
| 2026-05-05 21:10 | 40.54109 | 8.84016 | 24498 ft | 435 kts | 116° |
| 2026-05-05 21:10 | 40.53068 | 8.87742 | 24043 ft | 433 kts | 116° |
| 2026-05-05 21:11 | 40.52036 | 8.91446 | 23579 ft | 430 kts | 115° |
| 2026-05-05 21:11 | 40.51011 | 8.95124 | 23037 ft | 427 kts | 115° |
| 2026-05-05 21:11 | 40.49994 | 8.98775 | 22502 ft | 424 kts | 115° |
| 2026-05-05 21:11 | 40.48982 | 9.02401 | 21975 ft | 421 kts | 115° |
| 2026-05-05 21:12 | 40.47975 | 9.06001 | 21457 ft | 418 kts | 115° |
| 2026-05-05 21:12 | 40.46974 | 9.09565 | 20950 ft | 414 kts | 114° |
| 2026-05-05 21:12 | 40.46040 | 9.13129 | 20464 ft | 414 kts | 107° |
| 2026-05-05 21:12 | 40.45664 | 9.16875 | 19964 ft | 416 kts | 92° |
| 2026-05-05 21:13 | 40.45992 | 9.20648 | 19483 ft | 416 kts | 77° |
| 2026-05-05 21:13 | 40.47002 | 9.24185 | 18995 ft | 414 kts | 62° |
| 2026-05-05 21:13 | 40.48548 | 9.27360 | 18546 ft | 411 kts | 55° |
| 2026-05-05 21:13 | 40.50152 | 9.30447 | 18049 ft | 408 kts | 55° |
| 2026-05-05 21:14 | 40.51750 | 9.33522 | 17517 ft | 406 kts | 55° |
| 2026-05-05 21:14 | 40.53352 | 9.36568 | 16923 ft | 406 kts | 55° |
| 2026-05-05 21:14 | 40.54966 | 9.39614 | 16332 ft | 406 kts | 55° |
| 2026-05-05 21:14 | 40.56581 | 9.42656 | 15752 ft | 405 kts | 55° |
| 2026-05-05 21:15 | 40.58171 | 9.45661 | 15179 ft | 394 kts | 55° |
| 2026-05-05 21:15 | 40.59709 | 9.48575 | 14621 ft | 381 kts | 55° |
| 2026-05-05 21:15 | 40.61201 | 9.51404 | 14075 ft | 373 kts | 56° |
| 2026-05-05 21:15 | 40.62664 | 9.54185 | 13501 ft | 364 kts | 56° |
| 2026-05-05 21:16 | 40.64101 | 9.56928 | 12890 ft | 354 kts | 56° |
| 2026-05-05 21:16 | 40.65484 | 9.59567 | 12303 ft | 347 kts | 56° |
| 2026-05-05 21:16 | 40.66839 | 9.62154 | 11724 ft | 339 kts | 55° |
| 2026-05-05 21:16 | 40.68432 | 9.64332 | 11294 ft | 326 kts | 31° |
| 2026-05-05 21:17 | 40.70505 | 9.65274 | 10877 ft | 310 kts | 0° |
| 2026-05-05 21:17 | 40.72562 | 9.64861 | 10496 ft | 292 kts | 332° |
| 2026-05-05 21:17 | 40.74249 | 9.63519 | 10162 ft | 279 kts | 321° |
| 2026-05-05 21:17 | 40.75848 | 9.62068 | 9833 ft | 280 kts | 321° |
| 2026-05-05 21:18 | 40.77198 | 9.60292 | 9464 ft | 271 kts | 296° |
| 2026-05-05 21:18 | 40.77765 | 9.57993 | 9098 ft | 261 kts | 270° |
| 2026-05-05 21:18 | 40.77489 | 9.55686 | 8785 ft | 252 kts | 244° |
| 2026-05-05 21:18 | 40.76587 | 9.53741 | 8516 ft | 247 kts | 233° |
| 2026-05-05 21:19 | 40.75608 | 9.51883 | 8279 ft | 246 kts | 234° |
| 2026-05-05 21:19 | 40.74639 | 9.50034 | 8028 ft | 245 kts | 234° |
| 2026-05-05 21:19 | 40.73674 | 9.48187 | 7777 ft | 244 kts | 234° |
| 2026-05-05 21:19 | 40.72711 | 9.46353 | 7531 ft | 243 kts | 233° |
| 2026-05-05 21:20 | 40.71750 | 9.44525 | 7284 ft | 243 kts | 234° |
| 2026-05-05 21:20 | 40.70789 | 9.42697 | 7039 ft | 241 kts | 233° |
| 2026-05-05 21:20 | 40.69837 | 9.40888 | 6800 ft | 239 kts | 233° |
| 2026-05-05 21:20 | 40.68896 | 9.39106 | 6555 ft | 234 kts | 234° |
| 2026-05-05 21:21 | 40.67977 | 9.37360 | 6310 ft | 229 kts | 233° |
| 2026-05-05 21:21 | 40.67076 | 9.35647 | 6058 ft | 226 kts | 233° |
| 2026-05-05 21:21 | 40.66180 | 9.33951 | 5807 ft | 225 kts | 233° |
| 2026-05-05 21:21 | 40.65287 | 9.32261 | 5552 ft | 224 kts | 233° |
| 2026-05-05 21:22 | 40.64396 | 9.30576 | 5305 ft | 223 kts | 233° |
| 2026-05-05 21:22 | 40.63511 | 9.28899 | 5203 ft | 223 kts | 233° |
| 2026-05-05 21:22 | 40.62627 | 9.27222 | 5199 ft | 224 kts | 233° |
| 2026-05-05 21:22 | 40.61884 | 9.25436 | 5199 ft | 223 kts | 251° |
| 2026-05-05 21:23 | 40.61812 | 9.23433 | 5202 ft | 222 kts | 279° |
| 2026-05-05 21:23 | 40.62494 | 9.21598 | 5199 ft | 230 kts | 308° |
| 2026-05-05 21:23 | 40.63736 | 9.20233 | 5199 ft | 234 kts | 319° |
| 2026-05-05 21:23 | 40.65039 | 9.18934 | 5202 ft | 235 kts | 318° |
| 2026-05-05 21:24 | 40.66354 | 9.17617 | 5191 ft | 234 kts | 318° |
| 2026-05-05 21:24 | 40.67655 | 9.16325 | 5205 ft | 235 kts | 322° |
| 2026-05-05 21:24 | 40.69205 | 9.15623 | 5198 ft | 243 kts | 358° |
| 2026-05-05 21:24 | 40.70828 | 9.16195 | 5202 ft | 246 kts | 33° |
| 2026-05-05 21:25 | 40.72004 | 9.17793 | 5211 ft | 245 kts | 57° |
| 2026-05-05 21:25 | 40.72971 | 9.19642 | 5201 ft | 245 kts | 58° |
| 2026-05-05 21:25 | 40.73936 | 9.21490 | 5201 ft | 243 kts | 57° |
| 2026-05-05 21:25 | 40.74876 | 9.23268 | 5197 ft | 229 kts | 57° |
| 2026-05-05 21:26 | 40.75760 | 9.24938 | 5214 ft | 215 kts | 57° |
| 2026-05-05 21:26 | 40.76613 | 9.26554 | 5048 ft | 214 kts | 57° |
| 2026-05-05 21:26 | 40.77458 | 9.28156 | 4752 ft | 212 kts | 57° |
| 2026-05-05 21:26 | 40.78298 | 9.29749 | 4435 ft | 211 kts | 57° |
| 2026-05-05 21:27 | 40.79133 | 9.31333 | 4110 ft | 210 kts | 58° |
| 2026-05-05 21:27 | 40.79963 | 9.32908 | 3789 ft | 208 kts | 58° |
| 2026-05-05 21:27 | 40.80783 | 9.34465 | 3472 ft | 206 kts | 57° |
| 2026-05-05 21:27 | 40.81595 | 9.36005 | 3158 ft | 203 kts | 58° |
| 2026-05-05 21:28 | 40.82393 | 9.37522 | 2853 ft | 200 kts | 57° |
| 2026-05-05 21:28 | 40.83183 | 9.39025 | 2534 ft | 198 kts | 57° |
| 2026-05-05 21:28 | 40.83964 | 9.40510 | 2238 ft | 196 kts | 57° |
| 2026-05-05 21:28 | 40.84726 | 9.41960 | 1932 ft | 186 kts | 58° |
| 2026-05-05 21:29 | 40.85443 | 9.43325 | 1652 ft | 176 kts | 56° |
| 2026-05-05 21:29 | 40.86124 | 9.44622 | 1382 ft | 169 kts | 56° |
| 2026-05-05 21:29 | 40.86777 | 9.45868 | 1117 ft | 161 kts | 55° |
| 2026-05-05 21:29 | 40.87404 | 9.47063 | 860 ft | 155 kts | 54° |
| 2026-05-05 21:30 | 40.88010 | 9.48218 | 630 ft | 152 kts | 54° |
| 2026-05-05 21:30 | 40.88614 | 9.49369 | 391 ft | 152 kts | 54° |
| 2026-05-05 21:30 | 40.89222 | 9.50515 | 138 ft | 153 kts | 55° |
| 2026-05-05 21:30 | 40.89801 | 9.51625 | 24 ft | 123 kts | 56° |
| 2026-05-05 21:31 | 40.90116 | 9.52231 | 25 ft | 53 kts | 55° |
| 2026-05-05 21:31 | 40.90288 | 9.52563 | 22 ft | 34 kts | 57° |
| 2026-05-05 21:31 | 40.90369 | 9.52684 | 19 ft | 13 kts | 25° |
| 2026-05-05 21:31 | 40.90437 | 9.52670 | 19 ft | 8 kts | 317° |
| 2026-05-05 21:32 | 40.90450 | 9.52620 | 19 ft | 5 kts | 272° |
| 2026-05-05 21:32 | 40.90452 | 9.52566 | 21 ft | 7 kts | 272° |
| 2026-05-05 21:32 | 40.90447 | 9.52488 | 23 ft | 9 kts | 247° |
| 2026-05-05 21:32 | 40.90410 | 9.52415 | 24 ft | 12 kts | 232° |
| 2026-05-05 21:33 | 40.90358 | 9.52319 | 28 ft | 14 kts | 237° |
| 2026-05-05 21:33 | 40.90301 | 9.52207 | 28 ft | 16 kts | 234° |
| 2026-05-05 21:33 | 40.90238 | 9.52081 | 29 ft | 17 kts | 240° |
| 2026-05-05 21:33 | 40.90179 | 9.51954 | 30 ft | 13 kts | 255° |
| 2026-05-05 21:34 | 40.90182 | 9.51868 | 34 ft | 5 kts | 277° |
| 2026-05-05 21:34 | 40.90194 | 9.51829 | 35 ft | 7 kts | 308° |
| 2026-05-05 21:34 | 40.90226 | 9.51782 | 35 ft | 6 kts | 281° |
| 2026-05-05 21:34 | 40.90211 | 9.51738 | 34 ft | 7 kts | 236° |
| 2026-05-05 21:35 | 40.90192 | 9.51703 | 35 ft | 6 kts | 233° |
| 2026-05-05 21:35 | 40.90179 | 9.51657 | 35 ft | 3 kts | 297° |
| 2026-05-05 21:35 | 40.90194 | 9.51642 | 34 ft | 3 kts | 323° |
| 2026-05-05 21:35 | 40.90206 | 9.51632 | 35 ft | 2 kts | 326° |
| 2026-05-05 21:36 | 40.90214 | 9.51625 | 35 ft | 2 kts | 326° |
| 2026-05-05 21:36 | 40.90218 | 9.51621 | 35 ft | 1 kts | 326° |
| 2026-05-05 21:36 | 40.90220 | 9.51619 | 35 ft | 0 kts | 326° |